Time;durP1;ratioP1;P1;durP2;ratioP2;P2;SDS_P1;SDS_P2;PMS_P1;PMS_P2;Temp;Humidity;BMP_temperature;BMP_pressure;BME280_temperature;BME280_humidity;BME280_pressure;Samples;Min_cycle;Max_cycle;Signal;HPM_P1;HPM_P2
2022/07/23 00:01:21;;;;;;;14.90;12.10;;;;;;;15.25;100.00;100763.38;5071206;28;20035;-72
2022/07/23 00:03:47;;;;;;;17.83;10.95;;;;;;;15.21;100.00;100764.53;5082251;28;20166;-72
2022/07/23 00:06:12;;;;;;;13.18;11.30;;;;;;;15.29;100.00;100783.44;5085142;28;20474;-72
2022/07/23 00:08:38;;;;;;;12.50;11.23;;;;;;;15.21;100.00;100769.81;5072511;28;20071;-72
2022/07/23 00:11:03;;;;;;;10.98;9.98;;;;;;;15.18;100.00;100767.38;5060752;28;20040;-71
2022/07/23 00:13:29;;;;;;;13.27;11.52;;;;;;;15.13;100.00;100766.81;5066129;28;20173;-72
2022/07/23 00:15:55;;;;;;;15.50;11.73;;;;;;;15.18;100.00;100785.03;5072439;28;20103;-72
2022/07/23 00:18:20;;;;;;;18.83;11.65;;;;;;;15.04;100.00;100783.25;5067390;28;20409;-72
2022/07/23 00:20:45;;;;;;;19.35;13.05;;;;;;;14.95;100.00;100767.09;5076228;28;20039;-72
2022/07/23 00:23:11;;;;;;;22.20;13.45;;;;;;;14.95;100.00;100764.47;5090224;28;20534;-73
2022/07/23 00:25:36;;;;;;;18.38;14.45;;;;;;;15.07;100.00;100783.06;5057429;28;20044;-72
2022/07/23 00:28:03;;;;;;;20.60;14.40;;;;;;;15.03;100.00;100781.56;5057002;28;20028;-73
2022/07/23 00:30:31;;;;;;;20.92;14.77;;;;;;;15.00;100.00;100773.84;5068810;28;20077;-72
2022/07/23 00:33:04;;;;;;;18.88;12.95;;;;;;;15.06;100.00;100788.47;5055115;28;20027;-71
2022/07/23 00:35:32;;;;;;;14.48;12.77;;;;;;;14.74;100.00;100729.59;5066533;28;20041;-72
2022/07/23 00:37:58;;;;;;;21.80;15.18;;;;;;;14.90;100.00;100754.19;5082178;28;20017;-72
2022/07/23 00:40:24;;;;;;;20.38;15.82;;;;;;;15.00;100.00;100771.19;5052915;28;20020;-71
2022/07/23 00:42:50;;;;;;;20.95;14.25;;;;;;;15.04;100.00;100785.09;5052695;28;20067;-72
2022/07/23 00:45:15;;;;;;;16.80;14.43;;;;;;;14.92;100.00;100767.28;5051091;28;20053;-71
2022/07/23 00:47:41;;;;;;;16.45;14.23;;;;;;;14.84;100.00;100759.81;5066852;28;20078;-71
2022/07/23 00:50:08;;;;;;;19.38;14.63;;;;;;;14.94;100.00;100776.84;5065853;28;20021;-72
2022/07/23 00:52:34;;;;;;;21.70;14.27;;;;;;;14.91;100.00;100768.22;5065277;28;20119;-71
2022/07/23 00:55:00;;;;;;;20.50;14.10;;;;;;;14.87;100.00;100764.09;5069041;28;20067;-71
2022/07/23 00:57:25;;;;;;;22.48;14.52;;;;;;;14.77;100.00;100758.50;5081077;28;20020;-72
2022/07/23 00:59:51;;;;;;;18.00;13.32;;;;;;;14.79;100.00;100761.94;5067066;28;20397;-71
2022/07/23 01:02:16;;;;;;;17.85;15.38;;;;;;;14.76;100.00;100754.19;5097198;28;20150;-73
2022/07/23 01:04:41;;;;;;;20.10;13.88;;;;;;;14.87;100.00;100766.75;5084727;28;20036;-73
2022/07/23 01:07:07;;;;;;;20.33;14.40;;;;;;;14.82;100.00;100756.44;5085409;28;20075;-72
2022/07/23 01:09:32;;;;;;;15.48;13.88;;;;;;;14.76;100.00;100762.13;5060051;28;20084;-73
2022/07/23 01:11:59;;;;;;;16.70;13.02;;;;;;;14.64;100.00;100747.84;5064663;28;20056;-73
2022/07/23 01:14:24;;;;;;;15.02;12.43;;;;;;;14.74;100.00;100775.44;5099910;28;20050;-73
2022/07/23 01:16:49;;;;;;;14.77;13.13;;;;;;;14.62;100.00;100759.47;5073138;28;20047;-74
2022/07/23 01:19:16;;;;;;;18.52;13.77;;;;;;;14.47;100.00;100745.38;5094690;28;20028;-73
2022/07/23 01:21:48;;;;;;;15.75;13.07;;;;;;;14.58;100.00;100769.38;5089076;28;20451;-73
2022/07/23 01:24:13;;;;;;;17.30;12.13;;;;;;;14.47;100.00;100753.28;5082553;28;20965;-73
2022/07/23 01:26:42;;;;;;;16.95;13.15;;;;;;;14.43;100.00;100745.66;5061689;28;20032;-72
2022/07/23 01:29:08;;;;;;;15.13;12.70;;;;;;;14.52;100.00;100759.19;5073783;28;20029;-72
2022/07/23 01:31:33;;;;;;;14.18;12.13;;;;;;;14.43;100.00;100743.03;5051080;28;20402;-72
2022/07/23 01:33:59;;;;;;;15.82;11.48;;;;;;;14.44;100.00;100750.00;5052693;28;20098;-72
2022/07/23 01:36:24;;;;;;;13.88;11.60;;;;;;;14.16;100.00;100704.03;5060081;28;20025;-72
2022/07/23 01:38:51;;;;;;;15.05;12.27;;;;;;;14.30;100.00;100732.28;5072915;28;20422;-73
2022/07/23 01:41:16;;;;;;;15.77;12.50;;;;;;;14.02;100.00;100690.81;5067204;28;20029;-73
2022/07/23 01:43:42;;;;;;;14.88;11.52;;;;;;;14.40;100.00;100759.91;5052918;28;20398;-72
2022/07/23 01:46:07;;;;;;;13.27;11.80;;;;;;;14.34;100.00;100749.69;5071521;28;20028;-72
2022/07/23 01:48:32;;;;;;;18.33;13.20;;;;;;;14.31;100.00;100740.13;5071432;28;20050;-73
2022/07/23 01:50:58;;;;;;;19.67;13.20;;;;;;;14.26;100.00;100731.63;5056894;28;20035;-73
2022/07/23 01:53:23;;;;;;;18.30;12.75;;;;;;;14.21;100.00;100728.41;5072233;28;20041;-73
2022/07/23 01:55:49;;;;;;;18.15;11.32;;;;;;;14.32;100.00;100752.41;5062097;28;20036;-73
2022/07/23 01:58:15;;;;;;;19.13;12.32;;;;;;;14.30;100.00;100756.94;5071399;28;20033;-73
2022/07/23 02:00:40;;;;;;;15.27;12.13;;;;;;;14.28;100.00;100758.81;5087830;28;20032;-73
2022/07/23 02:03:06;;;;;;;17.52;12.00;;;;;;;14.12;100.00;100736.03;5071892;28;20016;-72
2022/07/23 02:05:34;;;;;;;17.33;12.10;;;;;;;14.25;100.00;100753.72;5069398;28;20107;-72
2022/07/23 02:08:00;;;;;;;17.10;11.40;;;;;;;14.23;100.00;100763.50;5075812;28;20052;-72
2022/07/23 02:10:26;;;;;;;22.33;12.45;;;;;;;14.14;100.00;100742.06;5072383;28;20063;-73
2022/07/23 02:12:52;;;;;;;17.25;12.48;;;;;;;14.02;100.00;100735.75;5072689;28;20082;-73
2022/07/23 02:15:17;;;;;;;14.50;11.30;;;;;;;14.11;100.00;100751.03;5071072;28;20041;-72
2022/07/23 02:17:43;;;;;;;22.08;13.32;;;;;;;13.97;100.00;100724.56;5083703;28;20475;-72
2022/07/23 02:20:10;;;;;;;14.93;11.82;;;;;;;14.11;100.00;100753.69;5073745;28;20754;-74
2022/07/23 02:22:35;;;;;;;16.98;12.82;;;;;;;14.02;100.00;100738.38;5066347;28;20024;-73
2022/07/23 02:25:01;;;;;;;36.15;12.82;;;;;;;14.07;100.00;100754.81;5076695;28;20356;-73
2022/07/23 02:27:28;;;;;;;17.73;12.25;;;;;;;13.88;100.00;100725.13;5063585;28;20017;-73
2022/07/23 02:29:53;;;;;;;14.68;12.43;;;;;;;13.95;100.00;100737.03;5070023;28;20020;-73
2022/07/23 02:32:18;;;;;;;15.48;11.88;;;;;;;13.87;100.00;100719.91;5083542;28;20039;-72
2022/07/23 02:34:44;;;;;;;17.17;11.75;;;;;;;13.91;100.00;100732.88;5068301;28;20476;-73
2022/07/23 02:37:09;;;;;;;14.93;12.48;;;;;;;14.01;100.00;100746.38;5068842;28;20036;-73
2022/07/23 02:39:35;;;;;;;19.77;12.70;;;;;;;13.99;100.00;100754.38;5074457;28;20060;-73
2022/07/23 02:42:01;;;;;;;25.10;12.65;;;;;;;13.60;100.00;100688.03;5073491;28;20029;-73
2022/07/23 02:44:27;;;;;;;18.60;13.57;;;;;;;13.88;100.00;100735.69;5073812;28;20056;-72
2022/07/23 02:46:52;;;;;;;18.23;12.98;;;;;;;13.95;100.00;100752.88;5055304;28;20052;-73
2022/07/23 02:49:18;;;;;;;13.57;12.18;;;;;;;13.75;100.00;100738.16;5068540;28;20042;-73
2022/07/23 02:51:43;;;;;;;15.00;11.75;;;;;;;13.92;100.00;100753.06;5053929;28;20036;-72
2022/07/23 02:54:08;;;;;;;19.05;12.52;;;;;;;13.93;100.00;100753.91;5066441;28;20391;-72
2022/07/23 02:56:34;;;;;;;15.85;12.25;;;;;;;13.93;100.00;100749.47;5073646;28;20025;-72
2022/07/23 02:58:59;;;;;;;14.30;12.10;;;;;;;13.75;100.00;100721.50;5065642;28;20104;-71
2022/07/23 03:01:25;;;;;;;19.58;13.63;;;;;;;13.78;100.00;100730.09;5055502;28;20387;-71
2022/07/23 03:03:50;;;;;;;15.55;13.35;;;;;;;13.87;100.00;100741.06;5073493;28;20108;-70
2022/07/23 03:06:16;;;;;;;17.35;11.52;;;;;;;13.91;100.00;100751.34;5056008;28;20078;-70
2022/07/23 03:08:41;;;;;;;14.48;12.98;;;;;;;13.90;100.00;100754.94;5053278;28;20095;-70
2022/07/23 03:11:10;;;;;;;16.77;12.95;;;;;;;13.85;100.00;100762.28;5073525;28;20032;-71
2022/07/23 03:13:39;;;;;;;17.92;13.02;;;;;;;13.81;100.00;100766.03;5075299;28;20084;-71
2022/07/23 03:16:05;;;;;;;16.15;13.15;;;;;;;13.50;100.00;100723.84;5080640;28;20035;-71
2022/07/23 03:18:31;;;;;;;13.88;11.82;;;;;;;13.48;100.00;100737.13;5074071;28;20032;-70
2022/07/23 03:20:56;;;;;;;12.88;10.35;;;;;;;13.47;100.00;100739.84;5074409;28;20540;-71
2022/07/23 03:23:22;;;;;;;13.07;10.75;;;;;;;13.46;100.00;100754.84;5071407;28;20061;-71
2022/07/23 03:25:50;;;;;;;14.02;10.82;;;;;;;13.35;100.00;100743.19;5068009;28;20447;-70
2022/07/23 03:28:16;;;;;;;14.05;11.90;;;;;;;13.40;100.00;100770.16;5082120;28;20073;-70
2022/07/23 03:30:42;;;;;;;19.48;12.13;;;;;;;13.10;100.00;100751.59;5070546;28;20052;-71
2022/07/23 03:33:08;;;;;;;67.32;50.97;;;;;;;12.85;100.00;100725.66;5073251;28;20471;-71
2022/07/23 03:35:33;;;;;;;68.03;52.47;;;;;;;13.07;100.00;100763.16;5059679;28;20031;-71
2022/07/23 03:37:59;;;;;;;61.13;48.22;;;;;;;13.00;100.00;100745.97;5059954;28;20472;-71
2022/07/23 03:40:24;;;;;;;37.25;32.15;;;;;;;13.00;100.00;100745.09;5075147;28;20039;-71
2022/07/23 03:42:49;;;;;;;39.70;27.85;;;;;;;12.97;100.00;100734.72;5068131;28;20021;-71
2022/07/23 03:45:15;;;;;;;20.63;16.35;;;;;;;13.06;100.00;100756.16;5054819;28;20047;-71
2022/07/23 03:47:40;;;;;;;15.45;13.75;;;;;;;13.10;100.00;100768.28;5058444;28;20028;-71
2022/07/23 03:50:06;;;;;;;19.08;16.02;;;;;;;13.08;100.00;100780.66;5077107;28;20128;-71
2022/07/23 03:52:32;;;;;;;15.43;13.13;;;;;;;13.01;100.00;100758.19;5081522;28;20032;-71
2022/07/23 03:54:57;;;;;;;17.30;14.18;;;;;;;13.09;100.00;100771.84;5068477;28;20471;-70
2022/07/23 03:57:22;;;;;;;27.02;13.93;;;;;;;13.06;100.00;100766.72;5041532;28;20024;-70
2022/07/23 03:59:48;;;;;;;18.23;14.13;;;;;;;12.96;100.00;100765.50;5063829;28;20053;-71
2022/07/23 04:02:14;;;;;;;14.18;12.40;;;;;;;13.00;100.00;100763.56;5052550;28;20025;-70
2022/07/23 04:04:39;;;;;;;15.35;12.85;;;;;;;13.01;100.00;100779.28;5068810;28;20044;-70
2022/07/23 04:07:06;;;;;;;14.27;12.20;;;;;;;12.95;100.00;100771.72;5087577;28;20108;-70
2022/07/23 04:09:31;;;;;;;12.82;10.70;;;;;;;12.95;100.00;100790.19;5065226;28;20094;-70
2022/07/23 04:11:57;;;;;;;16.08;13.30;;;;;;;12.63;100.00;100743.59;5076881;28;20036;-71
2022/07/23 04:14:22;;;;;;;15.05;11.93;;;;;;;12.92;100.00;100790.34;5074479;28;20025;-70
2022/07/23 04:16:47;;;;;;;14.13;12.60;;;;;;;12.83;100.00;100772.38;5067033;28;20031;-70
2022/07/23 04:19:13;;;;;;;16.73;12.52;;;;;;;12.88;100.00;100788.81;5065395;28;20040;-71
2022/07/23 04:21:38;;;;;;;13.82;11.85;;;;;;;12.84;100.00;100787.28;5067924;28;20032;-70
2022/07/23 04:24:04;;;;;;;17.92;14.05;;;;;;;12.86;100.00;100795.09;5066160;28;20032;-71
2022/07/23 04:26:30;;;;;;;18.92;14.73;;;;;;;12.88;100.00;100812.53;5068698;28;20043;-71
2022/07/23 04:28:55;;;;;;;16.92;13.63;;;;;;;12.90;100.00;100810.69;5069781;28;20070;-71
2022/07/23 04:31:20;;;;;;;18.67;13.02;;;;;;;12.77;100.00;100775.34;5080716;28;20020;-71
2022/07/23 04:33:46;;;;;;;18.02;14.02;;;;;;;12.89;100.00;100806.34;5059578;28;20044;-71
2022/07/23 04:36:11;;;;;;;17.40;14.27;;;;;;;12.91;100.00;100804.47;5068346;28;20032;-71
2022/07/23 04:38:37;;;;;;;15.35;13.68;;;;;;;12.90;100.00;100810.69;5064227;28;20043;-71
2022/07/23 04:41:02;;;;;;;15.73;11.98;;;;;;;12.88;100.00;100804.63;5066785;28;20025;-71
2022/07/23 04:43:27;;;;;;;14.77;13.27;;;;;;;12.92;100.00;100811.44;5068723;28;20399;-72
2022/07/23 04:45:53;;;;;;;15.38;13.70;;;;;;;12.99;100.00;100818.09;5052688;28;20031;-72
2022/07/23 04:48:18;;;;;;;16.90;14.23;;;;;;;13.04;100.00;100815.22;5066620;28;20032;-71
2022/07/23 04:50:43;;;;;;;21.13;17.75;;;;;;;13.09;100.00;100818.50;5054655;28;20031;-71
2022/07/23 04:53:09;;;;;;;22.88;17.42;;;;;;;13.01;100.00;100800.41;5053340;28;20629;-71
2022/07/23 04:55:34;;;;;;;19.25;17.15;;;;;;;13.20;100.00;100822.28;5061156;28;20131;-71
2022/07/23 04:58:00;;;;;;;24.85;18.95;;;;;;;13.22;100.00;100816.88;5059949;28;20031;-71
2022/07/23 05:00:25;;;;;;;22.05;17.35;;;;;;;13.29;100.00;100819.13;5063862;28;20381;-71
2022/07/23 05:02:50;;;;;;;21.90;18.80;;;;;;;13.36;100.00;100821.41;5069139;28;20078;-71
2022/07/23 05:05:16;;;;;;;19.90;16.58;;;;;;;13.32;100.00;100805.75;5057091;28;20096;-71
2022/07/23 05:07:41;;;;;;;19.52;16.73;;;;;;;13.40;100.00;100812.41;5063902;28;20115;-71
2022/07/23 05:10:07;;;;;;;21.33;18.17;;;;;;;13.37;100.00;100792.31;5072381;28;20028;-71
2022/07/23 05:12:32;;;;;;;22.33;19.95;;;;;;;13.48;100.00;100821.63;5062284;28;20110;-71
2022/07/23 05:14:58;;;;;;;18.77;16.80;;;;;;;13.61;100.00;100820.00;5077467;28;20035;-70
2022/07/23 05:17:23;;;;;;;25.00;18.65;;;;;;;13.51;100.00;100807.38;5059381;28;20039;-71
2022/07/23 05:19:48;;;;;;;17.83;16.13;;;;;;;13.57;100.00;100807.03;5084188;28;20081;-71
2022/07/23 05:22:14;;;;;;;18.42;16.30;;;;;;;13.66;100.00;100814.44;5057239;28;20537;-71
2022/07/23 05:24:39;;;;;;;19.20;17.15;;;;;;;13.80;100.00;100828.56;5066804;28;20034;-71
2022/07/23 05:27:05;;;;;;;23.23;15.63;;;;;;;13.90;100.00;100836.84;5055723;28;20066;-71
2022/07/23 05:29:30;;;;;;;22.80;19.67;;;;;;;13.93;100.00;100839.28;5060904;28;20031;-71
2022/07/23 05:31:55;;;;;;;18.92;16.90;;;;;;;13.96;100.00;100839.13;5073588;28;20052;-71
2022/07/23 05:34:21;;;;;;;23.15;17.17;;;;;;;14.06;100.00;100845.56;5059966;28;20040;-71
2022/07/23 05:36:46;;;;;;;21.17;17.40;;;;;;;14.01;100.00;100829.16;5064755;28;20028;-71
2022/07/23 05:39:11;;;;;;;18.17;16.25;;;;;;;13.77;100.00;100783.84;5050080;28;20520;-71
2022/07/23 05:41:37;;;;;;;22.13;18.48;;;;;;;14.16;100.00;100844.09;5066871;28;20386;-71
2022/07/23 05:44:02;;;;;;;20.17;15.98;;;;;;;14.23;100.00;100845.47;5069926;28;20025;-71
2022/07/23 05:46:27;;;;;;;20.90;17.55;;;;;;;14.36;100.00;100856.22;5081930;28;20035;-70
2022/07/23 05:48:53;;;;;;;30.08;17.90;;;;;;;14.44;100.00;100853.09;5069046;28;20021;-70
2022/07/23 05:51:23;;;;;;;23.60;16.13;;;;;;;14.45;100.00;100853.03;5059174;28;20040;-70
2022/07/23 05:53:49;;;;;;;19.48;17.35;;;;;;;14.41;100.00;100829.50;5056116;28;20128;-70
2022/07/23 05:56:14;;;;;;;17.02;14.43;;;;;;;14.49;100.00;100821.97;5079240;28;20031;-70
2022/07/23 05:58:40;;;;;;;18.05;16.33;;;;;;;14.68;100.00;100849.00;5068307;28;20832;-70
2022/07/23 06:01:05;;;;;;;19.35;17.25;;;;;;;14.44;100.00;100797.59;5064813;28;20063;-70
2022/07/23 06:03:31;;;;;;;20.73;16.60;;;;;;;14.87;100.00;100849.59;5064651;28;20479;-70
2022/07/23 06:05:56;;;;;;;25.88;15.95;;;;;;;14.96;100.00;100864.94;5063563;28;20020;-70
2022/07/23 06:08:21;;;;;;;21.70;16.98;;;;;;;15.01;100.00;100857.56;5073938;28;20103;-70
2022/07/23 06:10:47;;;;;;;18.67;16.65;;;;;;;15.01;100.00;100843.47;5074057;28;20024;-71
2022/07/23 06:13:12;;;;;;;17.40;15.68;;;;;;;15.02;100.00;100853.13;5068905;28;20437;-71
2022/07/23 06:15:37;;;;;;;21.58;15.18;;;;;;;15.03;100.00;100850.38;5067567;28;20036;-71
2022/07/23 06:18:03;;;;;;;18.88;13.98;;;;;;;15.16;100.00;100869.88;5069617;28;20028;-71
2022/07/23 06:20:28;;;;;;;21.92;16.27;;;;;;;15.12;100.00;100849.81;5063957;28;20098;-71
2022/07/23 06:22:54;;;;;;;16.77;14.57;;;;;;;15.27;100.00;100861.25;5059537;28;20476;-71
2022/07/23 06:25:20;;;;;;;16.38;14.68;;;;;;;15.41;100.00;100865.69;5062195;28;20112;-71
2022/07/23 06:27:46;;;;;;;20.77;16.73;;;;;;;15.39;100.00;100846.38;5060836;28;20550;-71
2022/07/23 06:30:12;;;;;;;18.35;16.45;;;;;;;15.51;100.00;100861.56;5072038;28;20061;-71
2022/07/23 06:32:37;;;;;;;21.02;15.85;;;;;;;15.60;100.00;100872.41;5073751;28;20031;-71
2022/07/23 06:35:03;;;;;;;17.10;13.93;;;;;;;15.58;100.00;100858.41;5074305;28;20033;-71
2022/07/23 06:37:28;;;;;;;17.60;15.07;;;;;;;15.65;100.00;100859.72;5056759;28;20037;-71
2022/07/23 06:39:54;;;;;;;18.45;15.48;;;;;;;15.63;100.00;100839.56;5061102;28;20025;-71
2022/07/23 06:42:19;;;;;;;21.17;15.35;;;;;;;15.73;100.00;100854.78;5058645;28;20115;-72
2022/07/23 06:44:44;;;;;;;15.98;13.38;;;;;;;15.80;100.00;100847.28;5048663;28;20135;-72
2022/07/23 06:47:10;;;;;;;14.80;13.27;;;;;;;15.88;100.00;100847.66;5065014;28;20032;-71
2022/07/23 06:49:35;;;;;;;18.98;16.92;;;;;;;15.92;100.00;100846.50;5058751;28;20103;-72
2022/07/23 06:52:01;;;;;;;17.25;15.45;;;;;;;16.08;100.00;100868.41;5067734;28;20491;-72
2022/07/23 06:54:26;;;;;;;18.02;15.02;;;;;;;16.02;100.00;100863.50;5071732;28;20024;-72
2022/07/23 06:56:52;;;;;;;20.73;15.73;;;;;;;16.16;100.00;100879.34;5052362;28;20030;-72
2022/07/23 06:59:17;;;;;;;21.70;17.63;;;;;;;16.18;100.00;100882.78;5067230;28;20044;-72
2022/07/23 07:01:42;;;;;;;24.73;16.48;;;;;;;16.20;100.00;100888.81;5062931;28;20017;-72
2022/07/23 07:04:08;;;;;;;20.75;17.90;;;;;;;16.28;100.00;100881.22;5065318;28;20020;-73
2022/07/23 07:06:34;;;;;;;23.75;15.77;;;;;;;16.35;100.00;100893.13;5059086;28;20028;-72
2022/07/23 07:08:59;;;;;;;24.92;16.65;;;;;;;16.36;100.00;100892.16;5057275;28;20490;-72
2022/07/23 07:11:25;;;;;;;17.73;15.82;;;;;;;16.27;100.00;100876.84;5046005;28;20098;-72
2022/07/23 07:13:51;;;;;;;18.42;16.25;;;;;;;16.34;100.00;100862.25;5054251;28;20040;-72
2022/07/23 07:16:16;;;;;;;17.48;15.73;;;;;;;16.34;100.00;100856.94;5085005;28;20463;-72
2022/07/23 07:18:42;;;;;;;19.10;16.02;;;;;;;16.57;100.00;100884.59;5064195;28;20092;-72
2022/07/23 07:21:07;;;;;;;24.25;18.50;;;;;;;16.51;100.00;100858.47;5060653;28;20033;-72
2022/07/23 07:23:32;;;;;;;24.02;17.75;;;;;;;16.65;100.00;100873.47;5066836;28;20074;-72
2022/07/23 07:25:58;;;;;;;16.85;15.10;;;;;;;16.70;100.00;100864.25;5065620;28;20502;-72
2022/07/23 07:28:23;;;;;;;16.65;14.73;;;;;;;16.81;100.00;100868.81;5056131;28;20162;-72
2022/07/23 07:30:48;;;;;;;20.33;16.15;;;;;;;16.99;100.00;100894.13;5072932;28;20414;-72
2022/07/23 07:33:14;;;;;;;21.25;14.35;;;;;;;16.98;100.00;100870.31;5068567;28;20036;-73
2022/07/23 07:35:39;;;;;;;26.40;15.93;;;;;;;17.12;100.00;100897.63;5053113;28;20422;-72
2022/07/23 07:38:05;;;;;;;20.52;16.83;;;;;;;17.01;100.00;100875.41;5056535;28;20031;-72
2022/07/23 07:40:30;;;;;;;16.02;12.57;;;;;;;17.23;100.00;100892.44;5055040;28;20112;-72
2022/07/23 07:42:58;;;;;;;15.88;13.05;;;;;;;17.44;100.00;100897.19;5070073;28;20082;-72
2022/07/23 07:45:25;;;;;;;17.60;12.07;;;;;;;17.41;100.00;100892.06;5062716;28;20021;-72
2022/07/23 07:47:52;;;;;;;14.43;11.45;;;;;;;17.58;100.00;100905.91;5058247;28;20035;-73
2022/07/23 07:50:18;;;;;;;14.68;10.85;;;;;;;17.57;100.00;100901.56;5053426;28;20017;-73
2022/07/23 07:52:44;;;;;;;14.38;11.05;;;;;;;17.61;100.00;100907.47;5068625;28;20475;-72
2022/07/23 07:55:10;;;;;;;11.48;9.82;;;;;;;17.72;100.00;100918.19;5055033;28;20040;-72
2022/07/23 07:57:36;;;;;;;15.48;11.27;;;;;;;17.75;100.00;100921.50;5054170;28;20032;-72
2022/07/23 08:00:01;;;;;;;18.13;13.25;;;;;;;17.80;100.00;100929.16;5068259;28;20057;-72
2022/07/23 08:02:27;;;;;;;18.35;11.75;;;;;;;17.73;100.00;100922.56;5053414;28;20056;-72
2022/07/23 08:04:52;;;;;;;12.40;9.82;;;;;;;17.78;100.00;100923.94;5061660;28;20029;-72
2022/07/23 08:07:18;;;;;;;12.57;9.10;;;;;;;17.86;100.00;100924.25;5065313;28;20411;-72
2022/07/23 08:09:44;;;;;;;11.73;10.10;;;;;;;17.79;100.00;100900.84;5061861;28;20034;-72
2022/07/23 08:12:09;;;;;;;13.25;8.43;;;;;;;17.85;100.00;100905.72;5061883;28;20125;-72
2022/07/23 08:14:34;;;;;;;13.68;10.90;;;;;;;17.93;100.00;100919.31;5080640;28;20031;-72
2022/07/23 08:17:00;;;;;;;15.80;7.40;;;;;;;17.85;100.00;100905.72;5072086;28;20028;-72
2022/07/23 08:19:25;;;;;;;16.13;8.93;;;;;;;17.58;100.00;100859.88;5082242;28;20424;-72
2022/07/23 08:21:50;;;;;;;11.98;8.05;;;;;;;18.09;100.00;100924.38;5063722;28;20020;-72
2022/07/23 08:24:16;;;;;;;10.13;7.18;;;;;;;18.21;100.00;100928.81;5066553;28;20452;-72
2022/07/23 08:26:41;;;;;;;11.73;7.75;;;;;;;18.10;100.00;100908.31;5052269;28;20040;-72
2022/07/23 08:29:07;;;;;;;9.80;7.93;;;;;;;18.39;100.00;100928.28;5062101;28;20025;-71
2022/07/23 08:31:32;;;;;;;11.50;7.07;;;;;;;18.37;100.00;100911.59;5050517;28;20025;-72
2022/07/23 08:33:59;;;;;;;10.15;8.10;;;;;;;18.51;100.00;100926.56;5071803;28;20098;-71
2022/07/23 08:36:27;;;;;;;8.52;6.95;;;;;;;18.55;100.00;100932.53;5070841;28;20491;-71
2022/07/23 08:38:53;;;;;;;10.23;6.93;;;;;;;18.60;100.00;100930.34;5072338;28;20115;-72
2022/07/23 08:41:18;;;;;;;11.25;6.57;;;;;;;18.55;100.00;100925.41;5060760;28;20128;-71
2022/07/23 08:43:44;;;;;;;8.70;5.95;;;;;;;18.69;100.00;100953.66;5070061;28;20043;-72
2022/07/23 08:46:09;;;;;;;8.70;6.10;;;;;;;18.66;100.00;100940.53;5056062;28;20025;-72
2022/07/23 08:48:36;;;;;;;9.30;6.15;;;;;;;18.72;100.00;100950.75;5070240;28;20041;-72
2022/07/23 08:51:04;;;;;;;11.55;6.50;;;;;;;18.71;100.00;100938.38;5055825;28;20056;-71
2022/07/23 08:53:30;;;;;;;9.63;6.45;;;;;;;18.73;100.00;100947.09;5070302;28;20086;-70
2022/07/23 08:55:58;;;;;;;7.75;5.78;;;;;;;18.80;100.00;100943.00;5078424;28;20063;-71
2022/07/23 08:58:24;;;;;;;10.82;6.63;;;;;;;18.93;100.00;100943.78;5064859;28;20029;-71
2022/07/23 09:00:50;;;;;;;12.45;6.13;;;;;;;18.96;100.00;100932.06;5072488;28;20029;-71
2022/07/23 09:03:21;;;;;;;9.55;6.80;;;;;;;19.08;100.00;100952.41;5066189;28;20037;-71
2022/07/23 09:05:47;;;;;;;11.10;7.03;;;;;;;19.05;100.00;100932.19;5055297;28;20047;-72
2022/07/23 09:08:18;;;;;;;7.82;5.20;;;;;;;19.19;100.00;100932.00;5052016;28;20387;-71
2022/07/23 09:10:46;;;;;;;8.27;5.80;;;;;;;19.39;100.00;100947.28;5053277;28;20025;-71
2022/07/23 09:14:01;;;;;;;13.60;6.78;;;;;;;19.49;100.00;100946.59;5061943;28;20075;-71
2022/07/23 09:16:29;;;;;;;11.80;6.40;;;;;;;19.51;100.00;100936.63;5065443;28;20493;-71
2022/07/23 09:19:04;;;;;;;7.78;5.18;;;;;;;19.60;100.00;100943.94;5062345;28;20105;-71
2022/07/23 09:21:39;;;;;;;8.35;5.43;;;;;;;19.62;100.00;100933.97;5062064;28;20465;-72
2022/07/23 09:24:12;;;;;;;8.23;5.60;;;;;;;19.59;100.00;100915.56;5059233;28;20581;-71
2022/07/23 09:26:42;;;;;;;9.73;4.40;;;;;;;19.73;100.00;100937.50;5063456;28;20482;-72
2022/07/23 09:29:19;;;;;;;8.48;5.18;;;;;;;19.69;100.00;100919.19;5057498;28;20037;-72
2022/07/23 09:31:59;;;;;;;9.70;5.18;;;;;;;19.78;100.00;100921.13;5064108;28;20066;-71
2022/07/23 09:34:28;;;;;;;8.65;5.00;;;;;;;19.92;100.00;100944.88;5053165;28;20033;-71
2022/07/23 09:36:54;;;;;;;7.13;5.30;;;;;;;19.99;100.00;100935.41;5066339;28;20025;-71
2022/07/23 09:39:29;;;;;;;8.75;5.55;;;;;;;19.99;100.00;100923.88;5059095;28;20524;-71
2022/07/23 09:41:54;;;;;;;;;;;;;;;20.14;100.00;100931.47;5066868;28;20533;-71
2022/07/23 09:44:20;;;;;;;6.95;4.22;;;;;;;20.18;100.00;100922.25;5058077;28;19921;-71
2022/07/23 09:46:48;;;;;;;6.85;3.50;;;;;;;20.33;100.00;100926.38;5039156;28;20551;-71
2022/07/23 09:49:22;;;;;;;9.50;4.25;;;;;;;20.36;100.00;100928.78;5066568;28;20445;-71
2022/07/23 09:51:48;;;;;;;6.95;4.53;;;;;;;20.41;100.00;100931.09;5088689;28;20056;-71
2022/07/23 09:54:22;;;;;;;8.15;4.53;;;;;;;20.44;100.00;100920.16;5074712;28;20036;-70
2022/07/23 09:56:48;;;;;;;8.68;4.00;;;;;;;20.62;100.00;100950.66;5076362;28;20395;-70
2022/07/23 09:59:17;;;;;;;6.18;4.30;;;;;;;20.56;100.00;100929.81;5094561;28;20047;-70
2022/07/23 10:01:43;;;;;;;7.03;3.72;;;;;;;20.62;100.00;100933.78;5076225;28;20398;-70
2022/07/23 10:04:11;;;;;;;5.80;3.80;;;;;;;20.75;100.00;100931.81;5066235;28;20140;-70
2022/07/23 10:06:40;;;;;;;5.25;2.85;;;;;;;20.86;100.00;100929.06;5073572;28;20058;-71
2022/07/23 10:09:07;;;;;;;7.05;3.67;;;;;;;21.07;100.00;100934.41;5088884;28;20028;-70
2022/07/23 10:11:33;;;;;;;4.78;2.80;;;;;;;21.11;100.00;100919.84;5054497;28;20111;-71
2022/07/23 10:14:00;;;;;;;4.38;2.75;;;;;;;21.28;100.00;100922.75;5066163;28;20086;-71
2022/07/23 10:16:26;;;;;;;5.10;2.72;;;;;;;21.34;100.00;100926.72;5085605;28;20032;-71
2022/07/23 10:18:51;;;;;;;6.03;2.10;;;;;;;21.57;100.00;100935.41;5094662;28;20031;-71
2022/07/23 10:21:41;;;;;;;8.32;2.78;;;;;;;21.66;100.00;100937.31;5055877;28;20017;-71
2022/07/23 10:24:29;;;;;;;4.25;2.78;;;;;;;21.67;100.00;100929.13;5075298;28;20035;-68
2022/07/23 10:27:04;;;;;;;4.28;2.63;;;;;;;21.62;100.00;100909.13;5064205;28;20040;-70
2022/07/23 10:29:43;;;;;;;4.45;2.75;;;;;;;21.71;100.00;100905.63;5083916;28;20032;-71
2022/07/23 10:32:21;;;;;;;5.50;3.10;;;;;;;21.88;100.00;100915.69;5071979;28;20028;-71
2022/07/23 10:35:03;;;;;;;5.35;2.63;;;;;;;21.94;100.00;100901.78;5059816;28;20033;-70
2022/07/23 10:37:36;;;;;;;4.25;2.03;;;;;;;22.10;100.00;100915.50;5093687;28;20413;-71
2022/07/23 10:40:22;;;;;;;4.40;1.92;;;;;;;22.25;100.00;100919.47;5081666;28;20044;-71
2022/07/23 10:42:48;;;;;;;7.25;2.80;;;;;;;22.38;100.00;100917.34;5070698;28;20043;-70
2022/07/23 10:45:26;;;;;;;3.53;2.28;;;;;;;22.28;89.78;100921.84;5081136;28;20054;-70
2022/07/23 10:47:51;;;;;;;3.80;1.83;;;;;;;22.24;94.85;100909.72;5075106;28;20020;-70
2022/07/23 10:50:20;;;;;;;3.88;1.95;;;;;;;22.39;93.34;100916.38;5086941;28;20024;-70
2022/07/23 10:53:15;;;;;;;3.33;1.40;;;;;;;22.46;94.18;100918.50;5061632;28;20092;-70
2022/07/23 10:55:45;;;;;;;5.13;1.70;;;;;;;22.51;91.57;100926.97;5059558;28;20082;-70
2022/07/23 10:58:11;;;;;;;1.95;0.98;;;;;;;22.56;91.27;100908.63;5068520;28;20036;-70
2022/07/23 11:00:37;;;;;;;3.38;1.58;;;;;;;22.68;90.32;100911.03;5067750;28;20023;-70
2022/07/23 11:03:07;;;;;;;3.70;2.10;;;;;;;22.94;93.78;100911.31;5059801;28;20025;-70